^^
Station Historical Data
Daily Summary for January 25, 2018 Units:  English    Metric   Both
« Previous Day
Next Day »
Daily Weekly Monthly Yearly Custom
  High: Low: Average:
Temperature: TemperatureF °F 50.0 °F 57.4 °F
Dew Point: DewpointF °F 33.6 °F 43.5 °F
Humidity: Humidity% 46% 60%
Wind Speed: WindSpeedMPHmph 0.0mph 0mph
Wind Gust: WindSpeedGustMPHmph - -
Wind- - North
Pressure: PressureIn in 30.28 in -
Precipitation: 0.00 in    
Historical Graphs
 
 
Tabular Data for January 25, 2018
Time Temperature Dew Point Pressure Wind Wind Speed Wind Gust Humidity Rainfall Rate (Hourly) solar Conditions
TemperatureF °F DewpointF °F PressureIn in Calm     Humidity% HourlyPrecipIn in SolarRadiationWatts/m^2 W/m2 Conditions
00:02 53.1 °F 42.8 °F 30.28 in Calm     68% 0.00 in 0.0 W/m2 CLR
00:07 53.1 °F 42.8 °F 30.28 in Calm     68% 0.00 in 0.0 W/m2 CLR
00:12 53.1 °F 42.8 °F 30.28 in Calm     68% 0.00 in 0.0 W/m2 CLR
00:17 53.1 °F 42.8 °F 30.28 in Calm     68% 0.00 in 0.0 W/m2 CLR
00:22 53.1 °F 42.8 °F 30.28 in Calm     68% 0.00 in 0.0 W/m2 CLR
00:27 53.1 °F 42.8 °F 30.28 in Calm     68% 0.00 in 0.0 W/m2 CLR
00:32 53.1 °F 42.8 °F 30.28 in Calm     68% 0.00 in 0.0 W/m2 CLR
00:37 53.1 °F 42.8 °F 30.28 in Calm     68% 0.00 in 0.0 W/m2 CLR
00:42 53.1 °F 42.8 °F 30.28 in Calm     68% 0.00 in 0.0 W/m2 CLR
00:47 53.1 °F 42.8 °F 30.28 in Calm     68% 0.00 in 0.0 W/m2 CLR
00:52 53.1 °F 42.8 °F 30.28 in Calm     68% 0.00 in 0.0 W/m2 CLR
00:57 53.1 °F 42.8 °F 30.28 in Calm     68% 0.00 in 0.0 W/m2 CLR
01:02 54.0 °F 39.5 °F 30.28 in Calm     58% 0.00 in 0.0 W/m2 CLR
01:07 54.0 °F 39.5 °F 30.28 in Calm     58% 0.00 in 0.0 W/m2 CLR
01:12 54.0 °F 39.5 °F 30.28 in Calm     58% 0.00 in 0.0 W/m2 CLR
01:17 54.0 °F 39.5 °F 30.28 in Calm     58% 0.00 in 0.0 W/m2 CLR
01:22 54.0 °F 39.5 °F 30.28 in Calm     58% 0.00 in 0.0 W/m2 CLR
01:27 54.0 °F 39.5 °F 30.28 in Calm     58% 0.00 in 0.0 W/m2 CLR
01:32 54.0 °F 39.5 °F 30.28 in Calm     58% 0.00 in 0.0 W/m2 CLR
01:37 54.0 °F 39.5 °F 30.28 in Calm     58% 0.00 in 0.0 W/m2 CLR
01:42 54.0 °F 39.5 °F 30.28 in Calm     58% 0.00 in 0.0 W/m2 CLR
01:47 54.0 °F 39.5 °F 30.28 in Calm     58% 0.00 in 0.0 W/m2 CLR
01:52 54.0 °F 39.5 °F 30.28 in Calm     58% 0.00 in 0.0 W/m2 CLR
01:57 54.0 °F 39.5 °F 30.28 in Calm     58% 0.00 in 0.0 W/m2 CLR
02:02 54.0 °F 35.7 °F 30.28 in Calm     50% 0.00 in 0.0 W/m2 CLR
02:07 54.0 °F 35.7 °F 30.28 in Calm     50% 0.00 in 0.0 W/m2 CLR
02:12 54.0 °F 35.7 °F 30.28 in Calm     50% 0.00 in 0.0 W/m2 CLR
02:17 54.0 °F 35.7 °F 30.28 in Calm     50% 0.00 in 0.0 W/m2 CLR
02:22 54.0 °F 35.7 °F 30.28 in Calm     50% 0.00 in 0.0 W/m2 CLR
02:27 54.0 °F 35.7 °F 30.28 in Calm     50% 0.00 in 0.0 W/m2 CLR
02:32 54.0 °F 35.7 °F 30.28 in Calm     50% 0.00 in 0.0 W/m2 CLR
02:37 54.0 °F 35.7 °F 30.28 in Calm     50% 0.00 in 0.0 W/m2 CLR
02:42 54.0 °F 35.7 °F 30.28 in Calm     50% 0.00 in 0.0 W/m2 CLR
02:47 54.0 °F 35.7 °F 30.28 in Calm     50% 0.00 in 0.0 W/m2 CLR
02:52 54.0 °F 35.7 °F 30.28 in Calm     50% 0.00 in 0.0 W/m2 CLR
02:57 54.0 °F 35.7 °F 30.28 in Calm     50% 0.00 in 0.0 W/m2 CLR
03:02 54.0 °F 33.6 °F 30.28 in Calm     46% 0.00 in 0.0 W/m2 CLR
03:07 54.0 °F 33.6 °F 30.28 in Calm     46% 0.00 in 0.0 W/m2 CLR
03:12 54.0 °F 33.6 °F 30.28 in Calm     46% 0.00 in 0.0 W/m2 CLR
03:17 54.0 °F 33.6 °F 30.28 in Calm     46% 0.00 in 0.0 W/m2 CLR
03:22 54.0 °F 33.6 °F 30.28 in Calm     46% 0.00 in 0.0 W/m2 CLR
03:27 54.0 °F 33.6 °F 30.28 in Calm     46% 0.00 in 0.0 W/m2 CLR
03:32 54.0 °F 33.6 °F 30.28 in Calm     46% 0.00 in 0.0 W/m2 CLR
03:37 54.0 °F 33.6 °F 30.28 in Calm     46% 0.00 in 0.0 W/m2 CLR
03:42 54.0 °F 33.6 °F 30.28 in Calm     46% 0.00 in 0.0 W/m2 CLR
03:47 54.0 °F 33.6 °F 30.28 in Calm     46% 0.00 in 0.0 W/m2 CLR
03:52 54.0 °F 33.6 °F 30.28 in Calm     46% 0.00 in 0.0 W/m2 CLR
03:57 54.0 °F 33.6 °F 30.28 in Calm     46% 0.00 in 0.0 W/m2 CLR
04:02 52.0 °F 34.9 °F 30.28 in Calm     52% 0.00 in 0.0 W/m2 CLR
04:07 52.0 °F 34.9 °F 30.28 in Calm     52% 0.00 in 0.0 W/m2 CLR
04:12 52.0 °F 34.9 °F 30.28 in Calm     52% 0.00 in 0.0 W/m2 CLR
04:17 52.0 °F 34.9 °F 30.28 in Calm     52% 0.00 in 0.0 W/m2 CLR
04:22 52.0 °F 34.9 °F 30.28 in Calm     52% 0.00 in 0.0 W/m2 CLR
04:27 52.0 °F 34.9 °F 30.28 in Calm     52% 0.00 in 0.0 W/m2 CLR
04:32 52.0 °F 34.9 °F 30.28 in Calm     52% 0.00 in 0.0 W/m2 CLR
04:37 52.0 °F 34.9 °F 30.28 in Calm     52% 0.00 in 0.0 W/m2 CLR
04:38 52.0 °F 34.9 °F 30.28 in Calm     52% 0.00 in 0.0 W/m2 CLR
04:43 52.0 °F 34.9 °F 30.28 in Calm     52% 0.00 in 0.0 W/m2 CLR
04:48 52.0 °F 34.9 °F 30.28 in Calm     52% 0.00 in 0.0 W/m2 CLR
04:53 52.0 °F 34.9 °F 30.28 in Calm     52% 0.00 in 0.0 W/m2 CLR
04:58 52.0 °F 34.9 °F 30.28 in Calm     52% 0.00 in 0.0 W/m2 CLR
05:03 51.1 °F 35.0 °F 30.29 in Calm     54% 0.00 in 0.0 W/m2 CLR
05:08 51.1 °F 35.0 °F 30.29 in Calm     54% 0.00 in 0.0 W/m2 CLR
05:13 51.1 °F 35.0 °F 30.29 in Calm     54% 0.00 in 0.0 W/m2 CLR
05:18 51.1 °F 35.0 °F 30.29 in Calm     54% 0.00 in 0.0 W/m2 CLR
05:23 51.1 °F 35.0 °F 30.29 in Calm     54% 0.00 in 0.0 W/m2 CLR
05:28 51.1 °F 35.0 °F 30.29 in Calm     54% 0.00 in 0.0 W/m2 CLR
05:33 51.1 °F 35.0 °F 30.29 in Calm     54% 0.00 in 0.0 W/m2 CLR
05:38 51.1 °F 35.0 °F 30.29 in Calm     54% 0.00 in 0.0 W/m2 CLR
05:43 51.1 °F 35.0 °F 30.29 in Calm     54% 0.00 in 0.0 W/m2 CLR
05:48 51.1 °F 35.0 °F 30.29 in Calm     54% 0.00 in 0.0 W/m2 CLR
05:53 51.1 °F 35.0 °F 30.29 in Calm     54% 0.00 in 0.0 W/m2 CLR
05:58 51.1 °F 35.0 °F 30.29 in Calm     54% 0.00 in 0.0 W/m2 CLR
06:03 51.1 °F 35.0 °F 30.29 in Calm     54% 0.00 in 0.0 W/m2 CLR
06:08 51.1 °F 35.0 °F 30.29 in Calm     54% 0.00 in 0.0 W/m2 CLR
06:13 51.1 °F 35.0 °F 30.29 in Calm     54% 0.00 in 0.0 W/m2 CLR
06:18 50.0 °F 35.8 °F 30.31 in Calm     58% 0.00 in 0.0 W/m2 CLR
06:23 50.0 °F 35.8 °F 30.31 in Calm     58% 0.00 in 0.0 W/m2 CLR
06:28 50.0 °F 35.8 °F 30.31 in Calm     58% 0.00 in 0.0 W/m2 CLR
06:33 50.0 °F 35.8 °F 30.31 in Calm     58% 0.00 in 0.0 W/m2 CLR
06:38 50.0 °F 35.8 °F 30.31 in Calm     58% 0.00 in 0.0 W/m2 CLR
06:43 50.0 °F 35.8 °F 30.31 in Calm     58% 0.00 in 0.0 W/m2 CLR
06:48 50.0 °F 35.8 °F 30.31 in Calm     58% 0.00 in 0.0 W/m2 CLR
06:53 50.0 °F 35.8 °F 30.31 in Calm     58% 0.00 in 0.0 W/m2 CLR
06:58 50.0 °F 35.8 °F 30.31 in Calm     58% 0.00 in 0.0 W/m2 CLR
07:03 50.0 °F 36.7 °F 30.32 in Calm     60% 0.00 in 0.0 W/m2 CLR
07:08 50.0 °F 36.7 °F 30.32 in Calm     60% 0.00 in 0.0 W/m2 CLR
07:13 50.0 °F 36.7 °F 30.32 in Calm     60% 0.00 in 0.0 W/m2 CLR
07:18 50.0 °F 36.7 °F 30.32 in Calm     60% 0.00 in 0.0 W/m2 CLR
07:23 50.0 °F 36.7 °F 30.32 in Calm     60% 0.00 in 0.0 W/m2 CLR
07:28 50.0 °F 36.7 °F 30.32 in Calm     60% 0.00 in 0.0 W/m2 CLR
07:33 50.0 °F 36.7 °F 30.32 in Calm     60% 0.00 in 0.0 W/m2 CLR
07:38 50.0 °F 36.7 °F 30.32 in Calm     60% 0.00 in 0.0 W/m2 CLR
07:43 50.0 °F 36.7 °F 30.32 in Calm     60% 0.00 in 0.0 W/m2 CLR
07:48 50.0 °F 36.7 °F 30.32 in Calm     60% 0.00 in 0.0 W/m2 CLR
07:53 50.0 °F 36.7 °F 30.32 in Calm     60% 0.00 in 0.0 W/m2 CLR
07:58 50.0 °F 36.7 °F 30.32 in Calm     60% 0.00 in 0.0 W/m2 CLR
08:03 51.1 °F 37.7 °F 30.34 in Calm     60% 0.00 in 0.0 W/m2 CLR
08:08 51.1 °F 37.7 °F 30.34 in Calm     60% 0.00 in 0.0 W/m2 CLR
08:13 51.1 °F 37.7 °F 30.34 in Calm     60% 0.00 in 0.0 W/m2 CLR
08:18 51.1 °F 37.7 °F 30.34 in Calm     60% 0.00 in 0.0 W/m2 CLR
08:23 51.1 °F 37.7 °F 30.34 in Calm     60% 0.00 in 0.0 W/m2 CLR
08:24 51.1 °F 37.7 °F 30.34 in Calm     60% 0.00 in 0.0 W/m2 CLR
08:29 51.1 °F 37.7 °F 30.34 in Calm     60% 0.00 in 0.0 W/m2 CLR
08:34 51.1 °F 37.7 °F 30.34 in Calm     60% 0.00 in 0.0 W/m2 CLR
08:39 51.1 °F 37.7 °F 30.34 in Calm     60% 0.00 in 0.0 W/m2 CLR
08:44 51.1 °F 37.7 °F 30.34 in Calm     60% 0.00 in 0.0 W/m2 CLR
08:49 51.1 °F 37.7 °F 30.34 in Calm     60% 0.00 in 0.0 W/m2 CLR
08:54 51.1 °F 37.7 °F 30.34 in Calm     60% 0.00 in 0.0 W/m2 CLR
08:59 51.1 °F 37.7 °F 30.34 in Calm     60% 0.00 in 0.0 W/m2 CLR
09:04 55.0 °F 39.6 °F 30.35 in Calm     56% 0.00 in 0.0 W/m2 CLR
09:09 55.0 °F 39.6 °F 30.35 in Calm     56% 0.00 in 0.0 W/m2 CLR
09:14 55.0 °F 39.6 °F 30.35 in Calm     56% 0.00 in 0.0 W/m2 CLR
09:19 55.0 °F 39.6 °F 30.35 in Calm     56% 0.00 in 0.0 W/m2 CLR
09:24 55.0 °F 39.6 °F 30.35 in Calm     56% 0.00 in 0.0 W/m2 CLR
09:29 55.0 °F 39.6 °F 30.35 in Calm     56% 0.00 in 0.0 W/m2 CLR
09:34 55.0 °F 39.6 °F 30.35 in Calm     56% 0.00 in 0.0 W/m2 CLR
09:39 55.0 °F 39.6 °F 30.35 in Calm     56% 0.00 in 0.0 W/m2 CLR
09:44 55.0 °F 39.6 °F 30.35 in Calm     56% 0.00 in 0.0 W/m2 CLR
09:49 55.0 °F 39.6 °F 30.35 in Calm     56% 0.00 in 0.0 W/m2 CLR
09:54 55.0 °F 39.6 °F 30.35 in Calm     56% 0.00 in 0.0 W/m2 CLR
09:59 55.0 °F 39.6 °F 30.35 in Calm     56% 0.00 in 0.0 W/m2 CLR
10:04 57.0 °F 41.9 °F 30.38 in Calm     57% 0.00 in 0.0 W/m2 CLR
10:09 57.0 °F 41.9 °F 30.38 in Calm     57% 0.00 in 0.0 W/m2 CLR
10:14 57.0 °F 41.9 °F 30.38 in Calm     57% 0.00 in 0.0 W/m2 CLR
10:19 57.0 °F 41.9 °F 30.38 in Calm     57% 0.00 in 0.0 W/m2 CLR
10:24 57.0 °F 41.9 °F 30.38 in Calm     57% 0.00 in 0.0 W/m2 CLR
10:29 57.0 °F 41.9 °F 30.38 in Calm     57% 0.00 in 0.0 W/m2 CLR
10:34 57.0 °F 41.9 °F 30.38 in Calm     57% 0.00 in 0.0 W/m2 CLR
10:39 57.0 °F 41.9 °F 30.38 in Calm     57% 0.00 in 0.0 W/m2 CLR
10:44 57.0 °F 41.9 °F 30.38 in Calm     57% 0.00 in 0.0 W/m2 CLR
10:49 57.0 °F 41.9 °F 30.38 in Calm     57% 0.00 in 0.0 W/m2 CLR
10:54 57.0 °F 41.9 °F 30.38 in Calm     57% 0.00 in 0.0 W/m2 CLR
10:59 57.0 °F 41.9 °F 30.38 in Calm     57% 0.00 in 0.0 W/m2 CLR
11:04 61.0 °F 43.7 °F 30.39 in Calm     53% 0.00 in 0.0 W/m2 CLR
11:09 61.0 °F 43.7 °F 30.39 in Calm     53% 0.00 in 0.0 W/m2 CLR
11:14 61.0 °F 43.7 °F 30.39 in Calm     53% 0.00 in 0.0 W/m2 CLR
11:19 61.0 °F 43.7 °F 30.39 in Calm     53% 0.00 in 0.0 W/m2 CLR
11:24 61.0 °F 43.7 °F 30.39 in Calm     53% 0.00 in 0.0 W/m2 CLR
11:29 61.0 °F 43.7 °F 30.39 in Calm     53% 0.00 in 0.0 W/m2 CLR
11:34 61.0 °F 43.7 °F 30.39 in Calm     53% 0.00 in 0.0 W/m2 CLR
11:39 61.0 °F 43.7 °F 30.39 in Calm     53% 0.00 in 0.0 W/m2 CLR
11:44 61.0 °F 43.7 °F 30.39 in Calm     53% 0.00 in 0.0 W/m2 CLR
11:49 61.0 °F 43.7 °F 30.39 in Calm     53% 0.00 in 0.0 W/m2 CLR
11:54 61.0 °F 43.7 °F 30.39 in Calm     53% 0.00 in 0.0 W/m2 CLR
11:59 61.0 °F 43.7 °F 30.39 in Calm     53% 0.00 in 0.0 W/m2 CLR
12:04 62.1 °F 46.6 °F 30.38 in Calm     57% 0.00 in 0.0 W/m2 CLR
12:09 62.1 °F 46.6 °F 30.38 in Calm     57% 0.00 in 0.0 W/m2 CLR
12:14 62.1 °F 46.6 °F 30.38 in Calm     57% 0.00 in 0.0 W/m2 CLR
12:19 62.1 °F 46.6 °F 30.38 in Calm     57% 0.00 in 0.0 W/m2 CLR
12:24 62.1 °F 46.6 °F 30.38 in Calm     57% 0.00 in 0.0 W/m2 CLR
12:29 62.1 °F 46.6 °F 30.38 in Calm     57% 0.00 in 0.0 W/m2 CLR
12:34 62.1 °F 46.6 °F 30.38 in Calm     57% 0.00 in 0.0 W/m2 CLR
12:39 62.1 °F 46.6 °F 30.38 in Calm     57% 0.00 in 0.0 W/m2 CLR
12:44 62.1 °F 46.6 °F 30.38 in Calm     57% 0.00 in 0.0 W/m2 CLR
12:49 62.1 °F 46.6 °F 30.38 in Calm     57% 0.00 in 0.0 W/m2 CLR
12:54 62.1 °F 46.6 °F 30.38 in Calm     57% 0.00 in 0.0 W/m2 CLR
12:59 62.1 °F 46.6 °F 30.38 in Calm     57% 0.00 in 0.0 W/m2 CLR
13:04 69.1 °F 49.7 °F 30.36 in Calm     50% 0.00 in 0.0 W/m2 CLR
13:09 69.1 °F 49.7 °F 30.36 in Calm     50% 0.00 in 0.0 W/m2 CLR
13:14 69.1 °F 49.7 °F 30.36 in Calm     50% 0.00 in 0.0 W/m2 CLR
13:19 69.1 °F 49.7 °F 30.36 in Calm     50% 0.00 in 0.0 W/m2 CLR
13:24 69.1 °F 49.7 °F 30.36 in Calm     50% 0.00 in 0.0 W/m2 CLR
13:29 69.1 °F 49.7 °F 30.36 in Calm     50% 0.00 in 0.0 W/m2 CLR
13:34 69.1 °F 49.7 °F 30.36 in Calm     50% 0.00 in 0.0 W/m2 CLR
13:39 69.1 °F 49.7 °F 30.36 in Calm     50% 0.00 in 0.0 W/m2 CLR
13:44 69.1 °F 49.7 °F 30.36 in Calm     50% 0.00 in 0.0 W/m2 CLR
13:49 69.1 °F 49.7 °F 30.36 in Calm     50% 0.00 in 0.0 W/m2 CLR
13:54 69.1 °F 49.7 °F 30.36 in Calm     50% 0.00 in 0.0 W/m2 CLR
13:59 69.1 °F 49.7 °F 30.36 in Calm     50% 0.00 in 0.0 W/m2 CLR
14:04 68.0 °F 49.7 °F 30.34 in Calm     52% 0.00 in 0.0 W/m2 SCT
14:09 68.0 °F 49.7 °F 30.34 in Calm     52% 0.00 in 0.0 W/m2 SCT
14:14 68.0 °F 49.7 °F 30.34 in Calm     52% 0.00 in 0.0 W/m2 SCT
14:19 68.0 °F 49.7 °F 30.34 in Calm     52% 0.00 in 0.0 W/m2 SCT
14:24 68.0 °F 49.7 °F 30.34 in Calm     52% 0.00 in 0.0 W/m2 SCT
14:29 68.0 °F 49.7 °F 30.34 in Calm     52% 0.00 in 0.0 W/m2 SCT
14:34 68.0 °F 49.7 °F 30.34 in Calm     52% 0.00 in 0.0 W/m2 SCT
14:39 68.0 °F 49.7 °F 30.34 in Calm     52% 0.00 in 0.0 W/m2 SCT
14:44 68.0 °F 49.7 °F 30.34 in Calm     52% 0.00 in 0.0 W/m2 SCT
14:49 68.0 °F 49.7 °F 30.34 in Calm     52% 0.00 in 0.0 W/m2 SCT
14:54 68.0 °F 49.7 °F 30.34 in Calm     52% 0.00 in 0.0 W/m2 SCT
14:59 68.0 °F 49.7 °F 30.34 in Calm     52% 0.00 in 0.0 W/m2 SCT
15:04 66.9 °F 50.7 °F 30.34 in Calm     56% 0.00 in 0.0 W/m2 OVC
15:09 66.9 °F 50.7 °F 30.34 in Calm     56% 0.00 in 0.0 W/m2 OVC
15:14 66.9 °F 50.7 °F 30.34 in Calm     56% 0.00 in 0.0 W/m2 OVC
15:19 66.9 °F 50.7 °F 30.34 in Calm     56% 0.00 in 0.0 W/m2 OVC
15:24 66.9 °F 50.7 °F 30.34 in Calm     56% 0.00 in 0.0 W/m2 OVC
15:29 66.9 °F 50.7 °F 30.34 in Calm     56% 0.00 in 0.0 W/m2 OVC
15:34 66.9 °F 50.7 °F 30.34 in Calm     56% 0.00 in 0.0 W/m2 OVC
15:39 66.9 °F 50.7 °F 30.34 in Calm     56% 0.00 in 0.0 W/m2 OVC
15:44 66.9 °F 50.7 °F 30.34 in Calm     56% 0.00 in 0.0 W/m2 OVC
15:49 66.9 °F 50.7 °F 30.34 in Calm     56% 0.00 in 0.0 W/m2 OVC
15:54 66.9 °F 50.7 °F 30.34 in Calm     56% 0.00 in 0.0 W/m2 OVC
15:59 66.9 °F 50.7 °F 30.34 in Calm     56% 0.00 in 0.0 W/m2 OVC
16:04 64.9 °F 50.7 °F 30.34 in Calm     60% 0.00 in 0.0 W/m2 FEW
16:09 64.9 °F 50.7 °F 30.34 in Calm     60% 0.00 in 0.0 W/m2 FEW
16:14 64.9 °F 50.7 °F 30.34 in Calm     60% 0.00 in 0.0 W/m2 FEW
16:19 64.9 °F 50.7 °F 30.34 in Calm     60% 0.00 in 0.0 W/m2 FEW
16:24 64.9 °F 50.7 °F 30.34 in Calm     60% 0.00 in 0.0 W/m2 FEW
16:29 64.9 °F 50.7 °F 30.34 in Calm     60% 0.00 in 0.0 W/m2 FEW
16:34 64.9 °F 50.7 °F 30.34 in Calm     60% 0.00 in 0.0 W/m2 FEW
16:39 64.9 °F 50.7 °F 30.34 in Calm     60% 0.00 in 0.0 W/m2 FEW
16:44 64.9 °F 50.7 °F 30.34 in Calm     60% 0.00 in 0.0 W/m2 FEW
16:49 64.9 °F 50.7 °F 30.34 in Calm     60% 0.00 in 0.0 W/m2 FEW
16:54 64.9 °F 50.7 °F 30.34 in Calm     60% 0.00 in 0.0 W/m2 FEW
16:59 64.9 °F 50.7 °F 30.34 in Calm     60% 0.00 in 0.0 W/m2 FEW
17:04 64.9 °F 50.7 °F 30.37 in Calm     60% 0.00 in 0.0 W/m2 BKN
17:09 64.9 °F 50.7 °F 30.37 in Calm     60% 0.00 in 0.0 W/m2 BKN
17:14 64.9 °F 50.7 °F 30.37 in Calm     60% 0.00 in 0.0 W/m2 BKN
17:19 64.9 °F 50.7 °F 30.37 in Calm     60% 0.00 in 0.0 W/m2 BKN
17:24 64.9 °F 50.7 °F 30.37 in Calm     60% 0.00 in 0.0 W/m2 BKN
17:29 64.9 °F 50.7 °F 30.37 in Calm     60% 0.00 in 0.0 W/m2 BKN
17:34 64.9 °F 50.7 °F 30.37 in Calm     60% 0.00 in 0.0 W/m2 BKN
17:39 64.9 °F 50.7 °F 30.37 in Calm     60% 0.00 in 0.0 W/m2 BKN
17:44 64.9 °F 50.7 °F 30.37 in Calm     60% 0.00 in 0.0 W/m2 BKN
17:49 64.9 °F 50.7 °F 30.37 in Calm     60% 0.00 in 0.0 W/m2 BKN
17:54 64.9 °F 50.7 °F 30.37 in Calm     60% 0.00 in 0.0 W/m2 BKN
17:59 64.9 °F 50.7 °F 30.37 in Calm     60% 0.00 in 0.0 W/m2 BKN
18:04 63.0 °F 51.0 °F 30.39 in Calm     65% 0.00 in 0.0 W/m2 BKN
18:09 63.0 °F 51.0 °F 30.39 in Calm     65% 0.00 in 0.0 W/m2 BKN
18:14 63.0 °F 51.0 °F 30.39 in Calm     65% 0.00 in 0.0 W/m2 BKN
18:19 63.0 °F 51.0 °F 30.39 in Calm     65% 0.00 in 0.0 W/m2 BKN
18:24 63.0 °F 51.0 °F 30.39 in Calm     65% 0.00 in 0.0 W/m2 BKN
18:29 63.0 °F 51.0 °F 30.39 in Calm     65% 0.00 in 0.0 W/m2 BKN
18:34 63.0 °F 51.0 °F 30.39 in Calm     65% 0.00 in 0.0 W/m2 BKN
18:39 63.0 °F 51.0 °F 30.39 in Calm     65% 0.00 in 0.0 W/m2 BKN
18:44 63.0 °F 51.0 °F 30.39 in Calm     65% 0.00 in 0.0 W/m2 BKN
18:49 63.0 °F 51.0 °F 30.39 in Calm     65% 0.00 in 0.0 W/m2 BKN
18:54 63.0 °F 51.0 °F 30.39 in Calm     65% 0.00 in 0.0 W/m2 BKN
18:59 63.0 °F 51.0 °F 30.39 in Calm     65% 0.00 in 0.0 W/m2 BKN
19:04 61.0 °F 49.9 °F 30.41 in Calm     67% 0.00 in 0.0 W/m2 SCT
19:09 61.0 °F 49.9 °F 30.41 in Calm     67% 0.00 in 0.0 W/m2 SCT
19:14 61.0 °F 49.9 °F 30.41 in Calm     67% 0.00 in 0.0 W/m2 SCT
19:19 61.0 °F 49.9 °F 30.41 in Calm     67% 0.00 in 0.0 W/m2 SCT
19:24 61.0 °F 49.9 °F 30.41 in Calm     67% 0.00 in 0.0 W/m2 SCT
19:29 61.0 °F 49.9 °F 30.41 in Calm     67% 0.00 in 0.0 W/m2 SCT
19:34 61.0 °F 49.9 °F 30.41 in Calm     67% 0.00 in 0.0 W/m2 SCT
19:39 61.0 °F 49.9 °F 30.41 in Calm     67% 0.00 in 0.0 W/m2 SCT
19:44 61.0 °F 49.9 °F 30.41 in Calm     67% 0.00 in 0.0 W/m2 SCT
19:49 61.0 °F 49.9 °F 30.41 in Calm     67% 0.00 in 0.0 W/m2 SCT
19:54 61.0 °F 49.9 °F 30.41 in Calm     67% 0.00 in 0.0 W/m2 SCT
19:59 61.0 °F 49.9 °F 30.41 in Calm     67% 0.00 in 0.0 W/m2 SCT
20:04 57.9 °F 48.6 °F 30.42 in Calm     71% 0.00 in 0.0 W/m2 CLR
20:09 57.9 °F 48.6 °F 30.42 in Calm     71% 0.00 in 0.0 W/m2 CLR
20:14 57.9 °F 48.6 °F 30.42 in Calm     71% 0.00 in 0.0 W/m2 CLR
20:19 57.9 °F 48.6 °F 30.42 in Calm     71% 0.00 in 0.0 W/m2 CLR
20:24 57.9 °F 48.6 °F 30.42 in Calm     71% 0.00 in 0.0 W/m2 CLR
20:29 57.9 °F 48.6 °F 30.42 in Calm     71% 0.00 in 0.0 W/m2 CLR
20:34 57.9 °F 48.6 °F 30.42 in Calm     71% 0.00 in 0.0 W/m2 CLR
20:39 57.9 °F 48.6 °F 30.42 in Calm     71% 0.00 in 0.0 W/m2 CLR
20:44 57.9 °F 48.6 °F 30.42 in Calm     71% 0.00 in 0.0 W/m2 CLR
20:49 57.9 °F 48.6 °F 30.42 in Calm     71% 0.00 in 0.0 W/m2 CLR
20:54 57.9 °F 48.6 °F 30.42 in Calm     71% 0.00 in 0.0 W/m2 CLR
20:59 57.9 °F 48.6 °F 30.42 in Calm     71% 0.00 in 0.0 W/m2 CLR
21:04 55.9 °F 48.8 °F 30.44 in Calm     77% 0.00 in 0.0 W/m2 FEW
21:09 55.9 °F 48.8 °F 30.44 in Calm     77% 0.00 in 0.0 W/m2 FEW
21:14 55.9 °F 48.8 °F 30.44 in Calm     77% 0.00 in 0.0 W/m2 FEW
21:19 55.9 °F 48.8 °F 30.44 in Calm     77% 0.00 in 0.0 W/m2 FEW
21:24 55.9 °F 48.8 °F 30.44 in Calm     77% 0.00 in 0.0 W/m2 FEW
21:29 55.9 °F 48.8 °F 30.44 in Calm     77% 0.00 in 0.0 W/m2 FEW
21:34 55.9 °F 48.8 °F 30.44 in Calm     77% 0.00 in 0.0 W/m2 FEW
21:39 55.9 °F 48.8 °F 30.44 in Calm     77% 0.00 in 0.0 W/m2 FEW
21:44 55.9 °F 48.8 °F 30.44 in Calm     77% 0.00 in 0.0 W/m2 FEW
21:49 55.9 °F 48.8 °F 30.44 in Calm     77% 0.00 in 0.0 W/m2 FEW
21:54 55.9 °F 48.8 °F 30.44 in Calm     77% 0.00 in 0.0 W/m2 FEW
21:59 55.9 °F 48.8 °F 30.44 in Calm     77% 0.00 in 0.0 W/m2 FEW
22:05 53.1 °F 47.7 °F 30.45 in Calm     82% 0.00 in 0.0 W/m2 SCT
22:10 53.1 °F 47.7 °F 30.45 in Calm     82% 0.00 in 0.0 W/m2 SCT
22:15 53.1 °F 47.7 °F 30.45 in Calm     82% 0.00 in 0.0 W/m2 SCT
22:20 53.1 °F 47.7 °F 30.45 in Calm     82% 0.00 in 0.0 W/m2 SCT
22:25 53.1 °F 47.7 °F 30.45 in Calm     82% 0.00 in 0.0 W/m2 SCT
22:30 53.1 °F 47.7 °F 30.45 in Calm     82% 0.00 in 0.0 W/m2 SCT
22:35 53.1 °F 47.7 °F 30.45 in Calm     82% 0.00 in 0.0 W/m2 SCT
22:40 53.1 °F 47.7 °F 30.45 in Calm     82% 0.00 in 0.0 W/m2 SCT
22:45 53.1 °F 47.7 °F 30.45 in Calm     82% 0.00 in 0.0 W/m2 SCT
22:50 53.1 °F 47.7 °F 30.45 in Calm     82% 0.00 in 0.0 W/m2 SCT
22:55 53.1 °F 47.7 °F 30.45 in Calm     82% 0.00 in 0.0 W/m2 SCT
23:00 53.1 °F 47.7 °F 30.45 in Calm     82% 0.00 in 0.0 W/m2 SCT
23:05 53.1 °F 47.7 °F 30.44 in Calm     82% 0.00 in 0.0 W/m2 BKN
23:10 53.1 °F 47.7 °F 30.44 in Calm     82% 0.00 in 0.0 W/m2 BKN
23:15 53.1 °F 47.7 °F 30.44 in Calm     82% 0.00 in 0.0 W/m2 BKN
23:20 53.1 °F 47.7 °F 30.44 in Calm     82% 0.00 in 0.0 W/m2 BKN
23:25 53.1 °F 47.7 °F 30.44 in Calm     82% 0.00 in 0.0 W/m2 BKN
23:30 53.1 °F 47.7 °F 30.44 in Calm     82% 0.00 in 0.0 W/m2 BKN
23:35 53.1 °F 47.7 °F 30.44 in Calm     82% 0.00 in 0.0 W/m2 BKN
23:40 53.1 °F 47.7 °F 30.44 in Calm     82% 0.00 in 0.0 W/m2 BKN
23:45 53.1 °F 47.7 °F 30.44 in Calm     82% 0.00 in 0.0 W/m2 BKN
23:50 53.1 °F 47.7 °F 30.44 in Calm     82% 0.00 in 0.0 W/m2 BKN
23:55 53.1 °F 47.7 °F 30.44 in Calm     82% 0.00 in 0.0 W/m2 BKN
Lake Mary, FL, USA
Compliments of Weather Underground - 1.75 mb